| time (UTC) | temp F | wind direction | speed knots | gust knots | rain 1hr in | rain 24hr in | rain mn in | humidity % | barometer mb |
| 20260504151003 | 59 | 345 | 12.2 | 21.7 | 0.00 | 0.00 | 0.00 | 49 | 1002.9 |
| 20260504150504 | 59 | 350 | 13.9 | 22.6 | 0.00 | 0.00 | 0.00 | 49 | 1002.9 |
| 20260504141004 | 58 | 356 | 7.8 | 17.4 | 0.00 | 0.00 | 0.00 | 51 | 1002.3 |
| 20260504140504 | 58 | 355 | 10.4 | 17.4 | 0.00 | 0.00 | 0.00 | 51 | 1002.3 |
| 20260504130503 | 52 | 339 | 4.3 | 7.0 | 0.00 | 0.00 | 0.00 | 76 | 1001.6 |
| 20260504110504 | 49 | 194 | 0.9 | 10.4 | 0.00 | 0.00 | 0.00 | 72 | 1000.2 |
| 20260504100503 | 46 | 207 | 6.1 | 7.8 | 0.00 | 0.00 | 0.00 | 74 | 999.6 |
| 20260504081004 | 48 | 211 | 7.8 | 11.3 | 0.00 | 0.00 | 0.00 | 65 | 1001.0 |
| 20260504080504 | 48 | 215 | 7.8 | 11.3 | 0.00 | 0.00 | 0.00 | 65 | 1001.0 |
| 20260504050004 | 47 | 175 | 6.1 | 7.0 | 0.00 | 0.00 | 0.00 | 66 | 1003.1 |
| 20260504045503 | 47 | 175 | 6.1 | 10.4 | 0.00 | 0.00 | 0.00 | 66 | 1003.3 |
| 20260504045004 | 47 | 186 | 6.1 | 10.4 | 0.00 | 0.00 | 0.00 | 66 | 1003.4 |
| 20260504044504 | 47 | 189 | 7.0 | 10.4 | 0.00 | 0.00 | 0.00 | 65 | 1003.4 |
| 20260504043503 | 47 | 189 | 7.8 | 8.7 | 0.00 | 0.00 | 0.00 | 64 | 1003.6 |
| 20260504043004 | 47 | 187 | 6.1 | 7.8 | 0.00 | 0.00 | 0.00 | 64 | 1003.5 |
| 20260504042504 | 47 | 187 | 6.1 | 7.8 | 0.00 | 0.00 | 0.00 | 62 | 1003.5 |
| 20260504041504 | 47 | 192 | 7.0 | 7.8 | 0.00 | 0.00 | 0.00 | 62 | 1003.7 |
| 20260504041004 | 47 | 204 | 5.2 | 7.0 | 0.00 | 0.00 | 0.00 | 62 | 1003.8 |
| 20260504040504 | 47 | 210 | 5.2 | 7.0 | 0.00 | 0.00 | 0.00 | 60 | 1003.9 |
| 20260504040004 | 47 | 215 | 5.2 | 7.0 | 0.00 | 0.00 | 0.00 | 60 | 1003.9 |
| 20260504035503 | 47 | 209 | 5.2 | 6.1 | 0.00 | 0.00 | 0.00 | 60 | 1003.9 |
| 20260504035003 | 47 | 206 | 5.2 | 7.0 | 0.00 | 0.00 | 0.00 | 60 | 1004.0 |
| 20260504034503 | 48 | 208 | 6.1 | 7.0 | 0.00 | 0.00 | 0.00 | 60 | 1004.1 |
| 20260504034004 | 48 | 213 | 6.1 | 7.0 | 0.00 | 0.00 | 0.00 | 59 | 1004.3 |
| 20260504033504 | 48 | 215 | 6.1 | 7.0 | 0.00 | 0.00 | 0.00 | 59 | 1004.3 |
| 20260504033004 | 48 | 216 | 5.2 | 7.0 | 0.00 | 0.00 | 0.00 | 58 | 1004.4 |
| 20260504032004 | 49 | 210 | 6.1 | 7.0 | 0.00 | 0.00 | 0.00 | 56 | 1004.4 |
| 20260504031503 | 50 | 208 | 5.2 | 6.1 | 0.00 | 0.00 | 0.00 | 53 | 1004.4 |
| 20260504031004 | 50 | 220 | 5.2 | 6.1 | 0.00 | 0.00 | 0.00 | 52 | 1004.5 |
| 20260504030504 | 51 | 224 | 6.1 | 7.0 | 0.00 | 0.00 | 0.00 | 52 | 1004.5 |
| 20260504030004 | 51 | 224 | 6.1 | 7.0 | 0.00 | 0.00 | 0.00 | 51 | 1004.5 |
| 20260504025504 | 52 | 216 | 5.2 | 7.0 | 0.00 | 0.00 | 0.00 | 49 | 1004.6 |
| 20260504025004 | 53 | 218 | 5.2 | 6.1 | 0.00 | 0.00 | 0.00 | 49 | 1004.6 |
| 20260504024504 | 53 | 226 | 5.2 | 6.1 | 0.00 | 0.00 | 0.00 | 48 | 1004.7 |
| 20260504024004 | 54 | 226 | 5.2 | 6.1 | 0.00 | 0.00 | 0.00 | 48 | 1004.7 |
| 20260504023504 | 55 | 227 | 5.2 | 6.1 | 0.00 | 0.00 | 0.00 | 46 | 1004.7 |
| 20260504023004 | 55 | 234 | 6.1 | 6.1 | 0.00 | 0.00 | 0.00 | 46 | 1004.8 |
| 20260504022004 | 57 | 244 | 5.2 | 6.1 | 0.00 | 0.00 | 0.00 | 44 | 1004.9 |
| 20260504021504 | 58 | 247 | 5.2 | 6.1 | 0.00 | 0.00 | 0.00 | 43 | 1005.0 |
| 20260504021004 | 58 | 250 | 5.2 | 7.0 | 0.00 | 0.00 | 0.00 | 42 | 1005.0 |
| 20260504020504 | 59 | 252 | 5.2 | 7.0 | 0.00 | 0.00 | 0.00 | 42 | 1005.0 |
| 20260504020004 | 59 | 251 | 6.1 | 7.8 | 0.00 | 0.00 | 0.00 | 41 | 1005.0 |
| 20260504015504 | 60 | 252 | 6.1 | 7.8 | 0.00 | 0.00 | 0.00 | 41 | 1005.1 |
| 20260504015003 | 61 | 252 | 6.1 | 8.7 | 0.00 | 0.00 | 0.00 | 40 | 1005.1 |
| 20260504014504 | 61 | 254 | 6.1 | 8.7 | 0.00 | 0.00 | 0.00 | 39 | 1005.1 |
| 20260504014004 | 62 | 254 | 6.1 | 8.7 | 0.00 | 0.00 | 0.00 | 39 | 1005.2 |
| 20260504013504 | 63 | 256 | 6.1 | 11.3 | 0.00 | 0.00 | 0.00 | 39 | 1005.1 |
| 20260504013004 | 63 | 257 | 7.0 | 11.3 | 0.00 | 0.00 | 0.00 | 38 | 1005.2 |
| 20260504012004 | 65 | 255 | 7.0 | 11.3 | 0.00 | 0.00 | 0.00 | 37 | 1005.2 |
| 20260504011503 | 65 | 254 | 7.8 | 11.3 | 0.00 | 0.00 | 0.00 | 37 | 1005.2 |
| 20260504010504 | 67 | 255 | 7.8 | 11.3 | 0.00 | 0.00 | 0.00 | 34 | 1005.2 |
| 20260504005504 | 67 | 256 | 6.1 | 11.3 | 0.00 | 0.00 | 0.00 | 33 | 1005.3 |
| 20260504005004 | 68 | 256 | 6.1 | 12.2 | 0.00 | 0.00 | 0.00 | 33 | 1005.3 |
| 20260504004505 | 68 | 247 | 9.6 | 12.2 | 0.00 | 0.00 | 0.00 | 33 | 1005.4 |
| 20260504004003 | 69 | 254 | 8.7 | 13.0 | 0.00 | 0.00 | 0.00 | 32 | 1005.4 |
| 20260504003004 | 70 | 257 | 9.6 | 12.2 | 0.00 | 0.00 | 0.00 | 34 | 1005.5 |
| 20260504002504 | 70 | 263 | 8.7 | 12.2 | 0.00 | 0.00 | 0.00 | 32 | 1005.5 |
| 20260504002004 | 70 | 269 | 7.8 | 12.2 | 0.00 | 0.00 | 0.00 | 31 | 1005.6 |
| 20260504001504 | 70 | 271 | 9.6 | 12.2 | 0.00 | 0.00 | 0.00 | 30 | 1005.6 |
| 20260504001004 | 70 | 255 | 8.7 | 13.0 | 0.00 | 0.00 | 0.00 | 31 | 1005.6 |
| 20260504000504 | 70 | 247 | 9.6 | 13.0 | 0.00 | 0.00 | 0.00 | 32 | 1005.7 |
| 20260504000004 | 70 | 265 | 7.0 | 11.3 | 0.00 | 0.00 | 0.00 | 30 | 1005.6 |
| 20260503235504 | 70 | 275 | 8.7 | 11.3 | 0.00 | 0.00 | 0.00 | 31 | 1005.6 |
| 20260503235004 | 71 | 288 | 7.8 | 13.9 | 0.00 | 0.00 | 0.00 | 33 | 1005.7 |
| 20260503234504 | 71 | 279 | 8.7 | 13.9 | 0.00 | 0.00 | 0.00 | 31 | 1005.8 |
| 20260503232504 | 72 | 263 | 12.2 | 18.2 | 0.00 | 0.00 | 0.00 | 32 | 1006.1 |
| 20260503232004 | 72 | 278 | 8.7 | 15.6 | 0.00 | 0.00 | 0.00 | 31 | 1006.1 |
| 20260503231504 | 72 | 271 | 10.4 | 15.6 | 0.00 | 0.00 | 0.00 | 31 | 1006.1 |
| 20260503231006 | 72 | 285 | 8.7 | 15.6 | 0.00 | 0.00 | 0.00 | 34 | 1006.2 |
| 20260503230504 | 72 | 288 | 10.4 | 17.4 | 0.00 | 0.00 | 0.00 | 34 | 1006.2 |
| 20260503230004 | 73 | 275 | 12.2 | 17.4 | 0.00 | 0.00 | 0.00 | 31 | 1006.3 |
| 20260503225003 | 72 | 286 | 9.6 | 17.4 | 0.00 | 0.00 | 0.00 | 31 | 1006.3 |
| 20260503224504 | 73 | 288 | 11.3 | 17.4 | 0.00 | 0.00 | 0.00 | 31 | 1006.4 |
| 20260503224005 | 73 | 291 | 6.1 | 12.2 | 0.00 | 0.00 | 0.00 | 31 | 1006.4 |
| 20260503223504 | 73 | 283 | 7.8 | 13.9 | 0.00 | 0.00 | 0.00 | 31 | 1006.4 |
| 20260503223004 | 73 | 298 | 8.7 | 18.2 | 0.00 | 0.00 | 0.00 | 33 | 1006.5 |
| 20260503222504 | 73 | 254 | 10.4 | 18.2 | 0.00 | 0.00 | 0.00 | 33 | 1006.6 |
| 20260503222006 | 73 | 284 | 12.2 | 18.2 | 0.00 | 0.00 | 0.00 | 33 | 1006.6 |
| 20260503221504 | 73 | 290 | 8.7 | 15.6 | 0.00 | 0.00 | 0.00 | 34 | 1006.7 |
| 20260503221004 | 73 | 301 | 10.4 | 13.9 | 0.00 | 0.00 | 0.00 | 33 | 1006.7 |
| 20260503220004 | 73 | 302 | 10.4 | 17.4 | 0.00 | 0.00 | 0.00 | 33 | 1006.8 |
| 20260503215004 | 73 | 304 | 8.7 | 13.9 | 0.00 | 0.00 | 0.00 | 33 | 1006.8 |
| 20260503214504 | 73 | 264 | 8.7 | 14.8 | 0.00 | 0.00 | 0.00 | 34 | 1007.0 |
| 20260503214004 | 73 | 261 | 8.7 | 14.8 | 0.00 | 0.00 | 0.00 | 34 | 1007.0 |
| 20260503213504 | 73 | 315 | 6.1 | 17.4 | 0.00 | 0.00 | 0.00 | 33 | 1007.1 |
| 20260503213004 | 73 | 307 | 8.7 | 17.4 | 0.00 | 0.00 | 0.00 | 36 | 1007.3 |
| 20260503212504 | 73 | 279 | 7.8 | 14.8 | 0.00 | 0.00 | 0.00 | 34 | 1007.3 |
| 20260503212003 | 73 | 299 | 9.6 | 13.9 | 0.00 | 0.00 | 0.00 | 35 | 1007.4 |
| 20260503211504 | 72 | 269 | 6.1 | 11.3 | 0.00 | 0.00 | 0.00 | 35 | 1007.5 |
| 20260503211004 | 73 | 263 | 7.8 | 12.2 | 0.00 | 0.00 | 0.00 | 35 | 1007.6 |
| 20260503210503 | 73 | 313 | 8.7 | 14.8 | 0.00 | 0.00 | 0.00 | 34 | 1007.7 |
| 20260503205005 | 72 | 284 | 7.8 | 17.4 | 0.00 | 0.00 | 0.00 | 34 | 1007.9 |
| 20260503204004 | 72 | 282 | 8.7 | 17.4 | 0.00 | 0.00 | 0.00 | 35 | 1008.2 |
| 20260503203504 | 72 | 289 | 9.6 | 18.2 | 0.00 | 0.00 | 0.00 | 34 | 1008.3 |
| 20260503203004 | 72 | 301 | 8.7 | 18.2 | 0.00 | 0.00 | 0.00 | 34 | 1008.4 |
| 20260503202503 | 72 | 291 | 12.2 | 18.2 | 0.00 | 0.00 | 0.00 | 34 | 1008.4 |
| 20260503202006 | 72 | 290 | 12.2 | 15.6 | 0.00 | 0.00 | 0.00 | 35 | 1008.6 |
| 20260503201503 | 72 | 311 | 7.8 | 13.9 | 0.00 | 0.00 | 0.00 | 37 | 1008.6 |
| 20260503201004 | 71 | 293 | 6.1 | 13.9 | 0.00 | 0.00 | 0.00 | 37 | 1008.8 |
| 20260503200504 | 72 | 270 | 10.4 | 18.2 | 0.00 | 0.00 | 0.00 | 34 | 1008.8 |
| 20260503200005 | 72 | 283 | 8.7 | 18.2 | 0.00 | 0.00 | 0.00 | 36 | 1008.8 |
| 20260503195504 | 71 | 274 | 8.7 | 14.8 | 0.00 | 0.00 | 0.00 | 38 | 1009.0 |
| 20260503195005 | 71 | 276 | 10.4 | 14.8 | 0.00 | 0.00 | 0.00 | 36 | 1009.0 |
| 20260503194504 | 71 | 267 | 8.7 | 15.6 | 0.00 | 0.00 | 0.00 | 34 | 1009.0 |
| 20260503194004 | 71 | 282 | 12.2 | 15.6 | 0.00 | 0.00 | 0.00 | 40 | 1009.0 |
| 20260503193504 | 71 | 312 | 8.7 | 15.6 | 0.00 | 0.00 | 0.00 | 37 | 1009.1 |
| 20260503192503 | 71 | 256 | 6.1 | 17.4 | 0.00 | 0.00 | 0.00 | 39 | 1009.2 |
| 20260503191504 | 70 | 325 | 7.8 | 15.6 | 0.00 | 0.00 | 0.00 | 37 | 1009.3 |
| 20260503191006 | 70 | 326 | 9.6 | 17.4 | 0.00 | 0.00 | 0.00 | 40 | 1009.5 |
| 20260503190504 | 70 | 323 | 7.8 | 17.4 | 0.00 | 0.00 | 0.00 | 40 | 1009.5 |
| 20260503190005 | 70 | 306 | 6.1 | 17.4 | 0.00 | 0.00 | 0.00 | 41 | 1009.6 |
| 20260503185503 | 70 | 299 | 10.4 | 17.4 | 0.00 | 0.00 | 0.00 | 43 | 1009.7 |
| 20260503185004 | 70 | 311 | 8.7 | 19.1 | 0.00 | 0.00 | 0.00 | 41 | 1009.8 |
| 20260503184504 | 70 | 344 | 10.4 | 19.1 | 0.00 | 0.00 | 0.00 | 39 | 1009.8 |
| 20260503184003 | 69 | 293 | 11.3 | 15.6 | 0.00 | 0.00 | 0.00 | 41 | 1009.8 |
| 20260503183504 | 69 | 343 | 8.7 | 20.9 | 0.00 | 0.00 | 0.00 | 40 | 1010.0 |
| 20260503182504 | 70 | 298 | 14.8 | 22.6 | 0.00 | 0.00 | 0.00 | 43 | 1010.2 |
| 20260503181505 | 69 | 297 | 11.3 | 17.4 | 0.00 | 0.00 | 0.00 | 44 | 1010.3 |
| 20260503180504 | 68 | 348 | 10.4 | 17.4 | 0.00 | 0.00 | 0.00 | 39 | 1010.4 |
| 20260503180004 | 68 | 287 | 8.7 | 18.2 | 0.00 | 0.00 | 0.00 | 41 | 1010.5 |
| 20260503175504 | 68 | 315 | 10.4 | 18.2 | 0.00 | 0.00 | 0.00 | 41 | 1010.6 |
| 20260503174504 | 68 | 281 | 11.3 | 18.2 | 0.00 | 0.00 | 0.00 | 45 | 1010.8 |
| 20260503174003 | 68 | 303 | 12.2 | 15.6 | 0.00 | 0.00 | 0.00 | 46 | 1010.8 |
| 20260503173504 | 68 | 309 | 8.7 | 17.4 | 0.00 | 0.00 | 0.00 | 44 | 1010.8 |
| 20260503173003 | 68 | 315 | 7.8 | 17.4 | 0.00 | 0.00 | 0.00 | 45 | 1010.9 |
| 20260503172504 | 67 | 333 | 11.3 | 17.4 | 0.00 | 0.00 | 0.00 | 46 | 1010.9 |
| 20260503172004 | 67 | 301 | 8.7 | 15.6 | 0.00 | 0.00 | 0.00 | 46 | 1011.0 |
| 20260503171504 | 67 | 327 | 6.1 | 18.2 | 0.00 | 0.00 | 0.00 | 43 | 1011.1 |
| 20260503171004 | 67 | 294 | 9.6 | 18.2 | 0.00 | 0.00 | 0.00 | 46 | 1011.1 |